Time;durP1;ratioP1;P1;durP2;ratioP2;P2;SDS_P1;SDS_P2;PMS_P1;PMS_P2;Temp;Humidity;BMP_temperature;BMP_pressure;BME280_temperature;BME280_humidity;BME280_pressure;Samples;Min_cycle;Max_cycle;Signal;HPM_P1;HPM_P2
2022/08/31 00:05:09;;;;;;;4.47;3.65;;;21.70;61.70;;;;;;5049872;28;21022;-68
2022/08/31 00:07:36;;;;;;;3.75;3.45;;;21.60;66.80;;;;;;5043373;28;20431;-68
2022/08/31 00:10:12;;;;;;;6.15;4.07;;;21.40;67.60;;;;;;5050730;28;20429;-68
2022/08/31 00:12:40;;;;;;;5.97;4.35;;;21.20;68.80;;;;;;5049590;28;20437;-68
2022/08/31 00:15:09;;;;;;;5.57;4.60;;;21.00;75.20;;;;;;5049946;28;20429;-68
2022/08/31 00:17:36;;;;;;;6.30;5.30;;;20.70;74.10;;;;;;5048656;28;20521;-68
2022/08/31 00:20:05;;;;;;;5.60;4.77;;;20.50;78.70;;;;;;5049765;28;20437;-68
2022/08/31 00:22:32;;;;;;;5.85;5.35;;;20.20;76.90;;;;;;5043386;28;20409;-68
2022/08/31 00:24:59;;;;;;;5.75;4.70;;;20.00;78.90;;;;;;5050574;28;20429;-68
2022/08/31 00:27:26;;;;;;;6.43;5.70;;;19.80;76.40;;;;;;5047827;28;20460;-69
2022/08/31 00:29:53;;;;;;;6.50;5.90;;;19.70;83.00;;;;;;5049116;28;20435;-69
2022/08/31 00:32:21;;;;;;;7.22;6.63;;;19.50;84.90;;;;;;5044507;28;20429;-69
2022/08/31 00:34:48;;;;;;;6.40;5.90;;;19.40;87.50;;;;;;5050198;28;20435;-69
2022/08/31 00:37:14;;;;;;;6.15;5.65;;;19.30;86.30;;;;;;5050028;28;20822;-68
2022/08/31 00:39:41;;;;;;;6.70;6.10;;;19.30;87.20;;;;;;5050948;28;20429;-68
2022/08/31 00:42:09;;;;;;;7.32;6.63;;;19.20;88.40;;;;;;5049614;28;20435;-69
2022/08/31 00:44:35;;;;;;;5.97;5.38;;;19.20;89.80;;;;;;5049157;28;20437;-68
2022/08/31 00:47:03;;;;;;;7.60;6.20;;;19.10;86.30;;;;;;5048355;28;20848;-69
2022/08/31 00:49:34;;;;;;;6.90;6.20;;;19.10;88.00;;;;;;5046248;28;20440;-68
2022/08/31 00:52:04;;;;;;;6.90;6.30;;;19.10;88.50;;;;;;5047375;28;20437;-68
2022/08/31 00:54:33;;;;;;;6.10;5.60;;;19.10;87.80;;;;;;5046120;28;20442;-68
2022/08/31 00:57:00;;;;;;;7.30;6.05;;;19.10;86.90;;;;;;5048874;28;20922;-68
2022/08/31 00:59:27;;;;;;;6.60;6.00;;;19.10;88.10;;;;;;5049937;28;20903;-69
2022/08/31 01:01:54;;;;;;;8.68;5.70;;;19.10;87.90;;;;;;5049052;28;20436;-68
2022/08/31 01:04:21;;;;;;;5.60;5.10;;;19.10;86.30;;;;;;5048816;28;20435;-68
2022/08/31 01:06:51;;;;;;;5.47;5.00;;;19.10;84.30;;;;;;5048789;28;20815;-68
2022/08/31 01:09:19;;;;;;;6.97;6.18;;;19.00;84.10;;;;;;5048054;28;20429;-68
2022/08/31 01:11:46;;;;;;;6.40;5.87;;;19.00;87.10;;;;;;5049271;28;20429;-68
2022/08/31 01:14:13;;;;;;;6.07;5.47;;;19.00;86.00;;;;;;5048931;28;20437;-70
2022/08/31 01:16:44;;;;;;;6.90;6.30;;;19.00;84.60;;;;;;5047983;28;20923;-68
2022/08/31 01:19:19;;;;;;;6.53;6.03;;;18.90;86.30;;;;;;5048478;28;20536;-68
2022/08/31 01:21:55;;;;;;;6.22;5.68;;;18.90;87.70;;;;;;5047008;28;20443;-70
2022/08/31 01:24:24;;;;;;;6.32;5.72;;;18.90;86.20;;;;;;5049035;28;20425;-70
2022/08/31 01:26:53;;;;;;;6.18;5.70;;;18.80;85.70;;;;;;5047943;28;20937;-68
2022/08/31 01:29:20;;;;;;;6.82;6.22;;;18.80;86.10;;;;;;5048187;28;20824;-70
2022/08/31 01:31:48;;;;;;;6.20;5.70;;;18.70;86.00;;;;;;5048911;28;20499;-70
2022/08/31 01:34:15;;;;;;;6.87;6.27;;;18.70;85.90;;;;;;5047338;28;20831;-70
2022/08/31 01:36:43;;;;;;;5.90;5.33;;;18.70;86.30;;;;;;5046408;28;20429;-69
2022/08/31 01:39:11;;;;;;;6.50;6.00;;;18.60;85.70;;;;;;5045845;28;20436;-68
2022/08/31 01:41:42;;;;;;;6.10;5.60;;;18.70;87.80;;;;;;5047659;28;20437;-69
2022/08/31 01:44:10;;;;;;;5.78;5.15;;;18.60;84.20;;;;;;5047602;28;20531;-68
2022/08/31 01:46:37;;;;;;;5.47;5.05;;;18.60;84.30;;;;;;5051878;28;20455;-68
2022/08/31 01:49:04;;;;;;;6.28;5.78;;;18.60;83.10;;;;;;5052335;28;20417;-69
2022/08/31 01:51:30;;;;;;;6.03;5.60;;;18.60;86.20;;;;;;5049251;28;20421;-68
2022/08/31 01:53:57;;;;;;;6.78;6.07;;;18.60;87.40;;;;;;5049206;28;20447;-69
2022/08/31 01:56:28;;;;;;;6.10;5.60;;;18.60;87.40;;;;;;5048423;28;20429;-68
2022/08/31 01:58:56;;;;;;;6.30;5.70;;;18.60;86.20;;;;;;5048133;28;20421;-69
2022/08/31 02:01:27;;;;;;;6.28;5.78;;;18.60;86.30;;;;;;5048674;28;20421;-69
2022/08/31 02:03:53;;;;;;;6.15;5.65;;;18.60;86.30;;;;;;5046675;28;20927;-68
2022/08/31 02:06:20;;;;;;;6.50;5.90;;;18.60;85.80;;;;;;5043947;28;20440;-69
2022/08/31 02:08:47;;;;;;;6.93;6.10;;;18.50;86.50;;;;;;5048304;28;20456;-68
2022/08/31 02:11:14;;;;;;;6.43;5.90;;;18.50;84.50;;;;;;5048878;28;20983;-68
2022/08/31 02:13:41;;;;;;;6.30;5.80;;;18.60;87.50;;;;;;5048442;28;20788;-68
2022/08/31 02:16:09;;;;;;;6.18;5.68;;;18.50;85.50;;;;;;5044071;28;20437;-68
2022/08/31 02:18:37;;;;;;;7.63;6.20;;;18.50;85.70;;;;;;5047056;28;20433;-68
2022/08/31 02:21:04;;;;;;;5.97;5.47;;;18.50;87.50;;;;;;5046614;28;20933;-68
2022/08/31 02:23:31;;;;;;;6.30;5.80;;;18.50;85.90;;;;;;5047758;28;20436;-68
2022/08/31 02:25:58;;;;;;;6.95;6.35;;;18.50;86.40;;;;;;5047030;28;20452;-68
2022/08/31 02:28:25;;;;;;;7.20;6.60;;;18.40;87.50;;;;;;5048406;28;20432;-68
2022/08/31 02:30:52;;;;;;;6.78;6.18;;;18.40;87.90;;;;;;5047303;28;20429;-68
2022/08/31 02:33:20;;;;;;;7.50;6.90;;;18.40;86.10;;;;;;5046351;28;20823;-68
2022/08/31 02:35:47;;;;;;;7.23;6.63;;;18.40;87.20;;;;;;5046254;28;20452;-68
2022/08/31 02:38:13;;;;;;;6.70;5.97;;;18.40;86.80;;;;;;5047018;28;20512;-69
2022/08/31 02:40:40;;;;;;;7.53;6.83;;;18.30;85.40;;;;;;5047747;28;20429;-69
2022/08/31 02:43:08;;;;;;;6.50;5.90;;;18.30;86.80;;;;;;5048017;28;20429;-69
2022/08/31 02:45:35;;;;;;;6.85;6.25;;;18.30;86.50;;;;;;5046788;28;21009;-69
2022/08/31 02:48:03;;;;;;;6.95;6.35;;;18.30;86.90;;;;;;5047126;28;21231;-69
2022/08/31 02:50:31;;;;;;;7.50;6.90;;;18.30;87.40;;;;;;5046809;28;20433;-69
2022/08/31 02:52:58;;;;;;;6.70;6.10;;;18.30;87.50;;;;;;5046502;28;20429;-69
2022/08/31 02:55:26;;;;;;;6.15;5.75;;;18.30;85.80;;;;;;5046817;28;20440;-69
2022/08/31 02:57:53;;;;;;;6.20;5.70;;;18.30;85.70;;;;;;5046550;28;20460;-69
2022/08/31 03:00:22;;;;;;;5.90;5.30;;;18.30;85.60;;;;;;5045950;28;20429;-69
2022/08/31 03:02:49;;;;;;;6.10;5.60;;;18.30;85.00;;;;;;5046948;28;20436;-69
2022/08/31 03:05:16;;;;;;;6.28;5.72;;;18.30;85.80;;;;;;5045409;28;20476;-69
2022/08/31 03:07:45;;;;;;;5.82;5.32;;;18.30;86.10;;;;;;5044839;28;20436;-69
2022/08/31 03:10:14;;;;;;;6.68;6.18;;;18.20;86.10;;;;;;5046639;28;20425;-69
2022/08/31 03:12:41;;;;;;;6.50;5.90;;;18.20;85.90;;;;;;5046862;28;20436;-69
2022/08/31 03:15:09;;;;;;;7.03;6.32;;;18.20;87.50;;;;;;5046368;28;20757;-70
2022/08/31 03:17:36;;;;;;;7.50;6.90;;;18.20;87.30;;;;;;5072682;22;20446;-73
2022/08/31 03:20:05;;;;;;;7.38;6.68;;;18.20;88.30;;;;;;5080433;28;20426;-73
2022/08/31 03:22:33;;;;;;;7.80;7.20;;;18.20;88.40;;;;;;5068083;28;20438;-74
2022/08/31 03:25:02;;;;;;;8.60;7.80;;;18.20;89.80;;;;;;5069544;28;20928;-73
2022/08/31 03:27:29;;;;;;;8.05;7.35;;;18.20;90.30;;;;;;5065956;28;20429;-75
2022/08/31 03:29:57;;;;;;;7.28;6.57;;;18.10;89.20;;;;;;5080119;28;20523;-74
2022/08/31 03:32:26;;;;;;;7.80;7.20;;;18.10;87.80;;;;;;5075159;28;21037;-75
2022/08/31 03:34:54;;;;;;;7.60;7.00;;;18.10;89.70;;;;;;5072658;28;20451;-74
2022/08/31 03:37:21;;;;;;;7.70;6.97;;;18.10;89.70;;;;;;5066739;28;20435;-73
2022/08/31 03:39:48;;;;;;;7.20;6.60;;;18.10;89.20;;;;;;5067305;28;20442;-73
2022/08/31 03:42:16;;;;;;;7.40;6.80;;;18.00;89.00;;;;;;5066598;28;20479;-74
2022/08/31 03:44:43;;;;;;;6.93;6.32;;;18.00;89.20;;;;;;5061308;28;20998;-74
2022/08/31 03:47:10;;;;;;;8.07;7.47;;;18.00;87.40;;;;;;5066740;28;20428;-74
2022/08/31 03:49:37;;;;;;;8.02;7.25;;;17.90;87.10;;;;;;5067109;28;20434;-73
2022/08/31 03:52:04;;;;;;;7.38;6.78;;;17.90;88.40;;;;;;5067117;28;20948;-73
2022/08/31 03:54:31;;;;;;;7.50;6.90;;;17.90;88.20;;;;;;5066135;28;20936;-75
2022/08/31 03:56:57;;;;;;;7.00;6.40;;;17.90;88.10;;;;;;5066201;28;20427;-74
2022/08/31 03:59:25;;;;;;;7.38;6.57;;;18.00;87.30;;;;;;5068219;28;20428;-73
2022/08/31 04:01:52;;;;;;;7.45;6.85;;;18.00;87.60;;;;;;5088740;28;21194;-73
2022/08/31 04:04:19;;;;;;;6.60;6.10;;;18.00;88.90;;;;;;5082795;28;20419;-73
2022/08/31 04:06:46;;;;;;;7.53;7.03;;;18.00;87.70;;;;;;5080281;28;20479;-72
2022/08/31 04:09:13;;;;;;;7.80;7.10;;;18.00;87.30;;;;;;5071339;28;20900;-72
2022/08/31 04:11:40;;;;;;;7.10;6.60;;;18.00;88.60;;;;;;5075032;28;20470;-72
2022/08/31 04:14:07;;;;;;;7.18;6.57;;;18.00;88.90;;;;;;5073063;28;20442;-73
2022/08/31 04:16:37;;;;;;;7.10;6.60;;;18.00;87.20;;;;;;5056529;28;21047;-71
2022/08/31 04:19:05;;;;;;;7.20;6.60;;;18.00;88.20;;;;;;5062237;28;20454;-72
2022/08/31 04:21:32;;;;;;;7.70;7.10;;;18.00;87.50;;;;;;5066040;28;20434;-71
2022/08/31 04:24:00;;;;;;;6.80;6.30;;;18.00;87.40;;;;;;5066932;28;20535;-71
2022/08/31 04:26:30;;;;;;;7.60;7.00;;;18.00;86.50;;;;;;5069785;28;20432;-72
2022/08/31 04:28:57;;;;;;;7.47;6.88;;;18.00;88.10;;;;;;5071001;28;20431;-73
2022/08/31 04:31:25;;;;;;;7.90;7.30;;;17.90;88.40;;;;;;5069960;28;20985;-72
2022/08/31 04:33:55;;;;;;;7.00;6.40;;;18.00;89.60;;;;;;5072083;28;20425;-72
2022/08/31 04:36:24;;;;;;;7.95;7.25;;;18.00;87.40;;;;;;5069134;28;20986;-72
2022/08/31 04:38:53;;;;;;;7.85;7.15;;;18.00;88.70;;;;;;5066444;28;20418;-74
2022/08/31 04:41:22;;;;;;;8.25;7.65;;;17.90;88.10;;;;;;5071470;28;20428;-71
2022/08/31 04:43:52;;;;;;;8.02;7.43;;;17.90;87.60;;;;;;5072611;28;20419;-72
2022/08/31 04:46:19;;;;;;;8.50;7.70;;;17.90;89.10;;;;;;5071239;28;20445;-71
2022/08/31 04:48:46;;;;;;;8.00;7.30;;;18.00;89.10;;;;;;5085499;28;20443;-73
2022/08/31 04:51:17;;;;;;;8.10;7.40;;;18.00;89.70;;;;;;5063061;28;20434;-73
2022/08/31 04:53:45;;;;;;;8.40;7.70;;;17.90;88.30;;;;;;5064589;28;20427;-70
2022/08/31 04:56:14;;;;;;;7.80;7.20;;;17.90;89.00;;;;;;5070892;28;20431;-72
2022/08/31 04:58:41;;;;;;;8.82;7.93;;;17.90;90.10;;;;;;5064448;28;20445;-71
2022/08/31 05:01:08;;;;;;;8.10;7.40;;;17.90;90.20;;;;;;5057717;28;20429;-72
2022/08/31 05:03:35;;;;;;;8.80;7.90;;;17.90;90.40;;;;;;5071237;28;21124;-71
2022/08/31 05:06:02;;;;;;;8.80;8.20;;;17.80;90.60;;;;;;5070348;28;20419;-72
2022/08/31 05:08:30;;;;;;;8.18;7.57;;;17.80;90.70;;;;;;5078751;28;20907;-72
2022/08/31 05:10:57;;;;;;;8.63;7.93;;;17.90;90.70;;;;;;5066028;28;20479;-72
2022/08/31 05:13:24;;;;;;;7.95;7.35;;;17.80;91.00;;;;;;5074109;28;20418;-72
2022/08/31 05:15:53;;;;;;;8.30;7.55;;;17.80;90.60;;;;;;5071090;28;20864;-72
2022/08/31 05:18:20;;;;;;;9.02;8.20;;;17.80;90.70;;;;;;5071179;28;20450;-71
2022/08/31 05:20:48;;;;;;;9.00;8.20;;;17.80;91.00;;;;;;5070433;28;20497;-71
2022/08/31 05:23:14;;;;;;;8.55;7.85;;;17.90;91.10;;;;;;5062979;28;20411;-72
2022/08/31 05:25:43;;;;;;;8.30;7.60;;;17.90;90.90;;;;;;5070295;28;20617;-72
2022/08/31 05:28:10;;;;;;;9.00;8.10;;;17.90;90.50;;;;;;5085257;28;20412;-72
2022/08/31 05:30:37;;;;;;;7.97;7.38;;;17.90;91.10;;;;;;5085825;28;20425;-72
2022/08/31 05:33:04;;;;;;;8.90;8.20;;;17.90;90.40;;;;;;5085403;28;20436;-71
2022/08/31 05:35:31;;;;;;;8.43;7.65;;;18.00;90.60;;;;;;5095532;28;20465;-73
2022/08/31 05:37:57;;;;;;;8.10;7.35;;;18.00;90.30;;;;;;5076359;28;20514;-71
2022/08/31 05:40:24;;;;;;;8.80;8.10;;;18.00;90.00;;;;;;5076753;28;20411;-74
2022/08/31 05:42:52;;;;;;;8.57;7.77;;;18.00;89.90;;;;;;5073587;28;20441;-74
2022/08/31 05:45:19;;;;;;;8.48;7.78;;;18.10;89.20;;;;;;5072524;28;20800;-74
2022/08/31 05:47:46;;;;;;;9.18;8.48;;;18.10;89.00;;;;;;5099095;28;20422;-75
2022/08/31 05:50:13;;;;;;;9.15;8.38;;;18.10;89.80;;;;;;5110612;28;20419;-73
2022/08/31 05:52:40;;;;;;;8.40;7.70;;;18.20;89.90;;;;;;5093785;28;20449;-71
2022/08/31 05:55:07;;;;;;;7.57;6.97;;;18.20;89.10;;;;;;5091754;28;20447;-74
2022/08/31 05:57:34;;;;;;;7.95;7.35;;;18.30;87.60;;;;;;5092739;28;20423;-73
2022/08/31 06:00:03;;;;;;;8.48;7.88;;;18.30;87.00;;;;;;5087362;28;20924;-72
2022/08/31 06:02:30;;;;;;;7.57;6.90;;;18.30;87.00;;;;;;5069806;28;20434;-72
2022/08/31 06:04:57;;;;;;;7.80;7.20;;;18.40;86.20;;;;;;5072740;28;20423;-72
2022/08/31 06:07:24;;;;;;;7.90;7.20;;;18.40;86.70;;;;;;5073843;28;20437;-73
2022/08/31 06:09:51;;;;;;;6.82;6.30;;;18.50;86.90;;;;;;5076093;28;20431;-73
2022/08/31 06:12:18;;;;;;;6.75;6.20;;;18.60;85.70;;;;;;5071798;28;20435;-73
2022/08/31 06:14:45;;;;;;;7.00;6.30;;;18.60;84.50;;;;;;5070778;28;20571;-72
2022/08/31 06:17:15;;;;;;;6.93;6.23;;;18.60;83.30;;;;;;5068742;28;20442;-72
2022/08/31 06:19:42;;;;;;;6.75;6.10;;;18.70;83.40;;;;;;5068971;28;20513;-71
2022/08/31 06:22:09;;;;;;;6.80;6.30;;;18.70;84.00;;;;;;5063686;28;20443;-73
2022/08/31 06:24:37;;;;;;;6.93;6.30;;;18.80;82.20;;;;;;5069698;28;20921;-72
2022/08/31 06:27:06;;;;;;;7.18;6.47;;;18.80;82.80;;;;;;5067265;28;20722;-73
2022/08/31 06:29:33;;;;;;;6.90;6.40;;;18.80;82.40;;;;;;5060095;28;20466;-72
2022/08/31 06:32:04;;;;;;;6.90;6.40;;;18.80;81.20;;;;;;5071024;28;20769;-72
2022/08/31 06:34:33;;;;;;;7.28;6.75;;;18.80;82.20;;;;;;5070940;28;20817;-73
2022/08/31 06:37:00;;;;;;;7.80;7.10;;;18.90;82.40;;;;;;5067231;28;20447;-72
2022/08/31 06:39:27;;;;;;;7.25;6.70;;;18.90;81.50;;;;;;5060951;28;20427;-72
2022/08/31 06:41:54;;;;;;;7.10;6.60;;;18.90;81.50;;;;;;5070869;28;20419;-72
2022/08/31 06:44:22;;;;;;;7.40;6.20;;;18.90;81.50;;;;;;5069483;28;20408;-72
2022/08/31 06:46:50;;;;;;;6.55;5.95;;;18.90;80.80;;;;;;5055641;28;20413;-72
2022/08/31 06:49:18;;;;;;;6.70;6.10;;;19.00;80.60;;;;;;5065310;28;20415;-72
2022/08/31 06:51:46;;;;;;;6.57;6.00;;;19.00;80.30;;;;;;5091190;28;20415;-71
2022/08/31 06:54:14;;;;;;;7.25;6.65;;;19.00;80.70;;;;;;5084505;28;20462;-73
2022/08/31 06:56:41;;;;;;;7.40;6.80;;;19.00;80.40;;;;;;5088279;28;20415;-72
2022/08/31 06:59:09;;;;;;;6.80;6.20;;;19.00;80.50;;;;;;5087308;28;20437;-72
2022/08/31 07:01:37;;;;;;;7.00;6.50;;;19.00;80.70;;;;;;5098121;28;20442;-72
2022/08/31 07:04:07;;;;;;;6.90;6.30;;;19.10;81.00;;;;;;5075949;28;20424;-72
2022/08/31 07:06:36;;;;;;;7.25;6.68;;;19.10;81.40;;;;;;5069180;28;20798;-73
2022/08/31 07:09:07;;;;;;;6.82;6.40;;;19.20;80.40;;;;;;5071424;28;20427;-72
2022/08/31 07:11:37;;;;;;;7.40;6.80;;;19.20;81.30;;;;;;5062546;28;20498;-72
2022/08/31 07:14:04;;;;;;;8.60;7.80;;;19.10;81.50;;;;;;5061297;28;20435;-72
2022/08/31 07:16:32;;;;;;;7.82;7.13;;;19.00;81.30;;;;;;5069110;28;20949;-73
2022/08/31 07:19:02;;;;;;;7.32;6.72;;;19.10;82.60;;;;;;5069498;28;21050;-72
2022/08/31 07:21:31;;;;;;;8.60;7.80;;;19.00;83.00;;;;;;5069060;28;20832;-72
2022/08/31 07:24:01;;;;;;;7.90;7.30;;;19.00;83.70;;;;;;5068159;28;20491;-73
2022/08/31 07:26:33;;;;;;;8.20;7.60;;;19.00;84.20;;;;;;5060398;28;20407;-71
2022/08/31 07:29:03;;;;;;;7.97;7.30;;;19.10;84.10;;;;;;5069390;28;20421;-72
2022/08/31 07:31:36;;;;;;;8.40;7.80;;;19.20;83.60;;;;;;5068973;28;20897;-72
2022/08/31 07:34:05;;;;;;;8.23;7.63;;;19.20;83.00;;;;;;5068596;28;20477;-74
2022/08/31 07:36:32;;;;;;;8.50;7.80;;;19.30;84.80;;;;;;5072276;28;20431;-73
2022/08/31 07:44:29;;;;;;;9.30;7.50;;;19.40;82.30;;;;;;5069122;28;20453;-73
2022/08/31 07:46:56;;;;;;;8.30;7.60;;;19.50;82.40;;;;;;5069016;28;20416;-74
2022/08/31 07:49:23;;;;;;;7.85;7.25;;;19.50;83.50;;;;;;5071663;28;20415;-72
2022/08/31 07:51:50;;;;;;;7.28;6.78;;;19.60;82.50;;;;;;5076764;28;20447;-72
2022/08/31 07:54:19;;;;;;;7.22;6.55;;;19.70;82.00;;;;;;5068238;28;20422;-72
2022/08/31 07:56:49;;;;;;;7.20;6.53;;;19.70;78.90;;;;;;5063398;28;20508;-73
2022/08/31 07:59:18;;;;;;;7.50;6.90;;;19.70;80.10;;;;;;5072903;28;20797;-73
2022/08/31 08:01:45;;;;;;;7.80;7.10;;;19.70;78.80;;;;;;5076659;28;20467;-72
2022/08/31 08:04:14;;;;;;;7.80;7.10;;;19.70;79.20;;;;;;5094297;28;20419;-74
2022/08/31 08:06:41;;;;;;;7.75;7.00;;;19.60;80.20;;;;;;5065853;28;20480;-73
2022/08/31 08:09:08;;;;;;;6.88;6.38;;;19.70;79.40;;;;;;5079883;28;20501;-74
2022/08/31 08:11:36;;;;;;;6.60;6.10;;;19.90;79.10;;;;;;5073546;28;20515;-72
2022/08/31 08:14:06;;;;;;;5.95;5.55;;;19.90;77.80;;;;;;5072954;28;20419;-74
2022/08/31 08:16:33;;;;;;;5.80;5.40;;;20.10;77.10;;;;;;5072596;28;20435;-73
2022/08/31 08:19:00;;;;;;;6.72;6.20;;;20.20;75.40;;;;;;5075811;28;20436;-73
2022/08/31 08:21:28;;;;;;;6.50;5.97;;;20.20;74.80;;;;;;5085414;28;20411;-73
2022/08/31 08:23:55;;;;;;;7.97;5.50;;;20.30;75.50;;;;;;5075201;28;20898;-73
2022/08/31 08:26:22;;;;;;;6.78;6.18;;;20.40;73.90;;;;;;5072024;28;20439;-74
2022/08/31 08:28:49;;;;;;;5.95;5.45;;;20.40;73.10;;;;;;5068894;28;20925;-74
2022/08/31 08:31:21;;;;;;;5.72;5.18;;;20.60;72.50;;;;;;5072453;28;20916;-74
2022/08/31 08:33:49;;;;;;;5.60;5.20;;;20.80;71.90;;;;;;5072157;28;20931;-73
2022/08/31 08:36:17;;;;;;;6.07;5.47;;;21.00;71.10;;;;;;5084298;28;20416;-73
2022/08/31 08:38:46;;;;;;;6.43;5.82;;;21.30;70.10;;;;;;5093021;28;20543;-73
2022/08/31 08:41:15;;;;;;;5.95;5.47;;;21.50;68.90;;;;;;5078208;28;20508;-74
2022/08/31 08:43:46;;;;;;;7.47;5.60;;;21.80;67.10;;;;;;5071611;28;20423;-73
2022/08/31 08:46:14;;;;;;;5.53;5.13;;;22.10;66.40;;;;;;5071439;28;20430;-74
2022/08/31 08:48:45;;;;;;;6.50;6.00;;;22.20;65.60;;;;;;5059756;28;20495;-73
2022/08/31 08:51:16;;;;;;;6.13;5.63;;;22.40;64.20;;;;;;5071696;28;20510;-72
2022/08/31 08:53:46;;;;;;;5.72;5.05;;;22.40;64.30;;;;;;5073689;28;20423;-74
2022/08/31 08:56:14;;;;;;;5.28;4.88;;;22.50;63.90;;;;;;5064779;28;20516;-74
2022/08/31 08:58:42;;;;;;;6.10;5.47;;;22.50;64.20;;;;;;5070072;28;20430;-73
2022/08/31 09:01:12;;;;;;;5.80;5.40;;;22.50;63.00;;;;;;5069722;28;20537;-72
2022/08/31 09:03:50;;;;;;;5.10;4.70;;;22.40;63.00;;;;;;5071635;28;20447;-73
2022/08/31 09:06:29;;;;;;;5.55;4.95;;;22.50;63.60;;;;;;5069445;28;20428;-73
2022/08/31 09:09:16;;;;;;;5.45;4.95;;;22.40;61.60;;;;;;5081497;28;20417;-74
2022/08/31 09:11:54;;;;;;;5.32;4.93;;;22.30;62.80;;;;;;5064481;28;20435;-73
2022/08/31 09:14:48;;;;;;;5.60;5.10;;;22.20;62.90;;;;;;5071384;28;20427;-74
2022/08/31 09:17:28;;;;;;;5.85;5.45;;;22.20;63.50;;;;;;5081809;22;20443;-74
2022/08/31 09:20:00;;;;;;;7.00;5.82;;;22.20;62.30;;;;;;5027400;28;20453;-74
2022/08/31 09:22:28;;;;;;;6.20;5.70;;;22.10;63.50;;;;;;5044356;28;21003;-75
2022/08/31 09:24:58;;;;;;;6.10;5.60;;;22.20;62.60;;;;;;5042136;28;20439;-73
2022/08/31 09:27:44;;;;;;;5.22;4.72;;;22.20;62.00;;;;;;5049003;28;20415;-74
2022/08/31 09:30:16;;;;;;;6.70;5.37;;;22.40;62.70;;;;;;5041706;28;20433;-73
2022/08/31 09:32:53;;;;;;;5.80;5.30;;;22.60;61.90;;;;;;5044949;28;20417;-73
2022/08/31 09:35:29;;;;;;;5.20;4.80;;;22.90;60.60;;;;;;5047845;28;20478;-74
2022/08/31 09:38:01;;;;;;;5.80;4.97;;;23.10;59.90;;;;;;5054022;28;21195;-74
2022/08/31 09:40:38;;;;;;;6.10;5.50;;;23.30;58.80;;;;;;5042964;28;20459;-74
2022/08/31 09:43:08;;;;;;;5.00;4.60;;;23.60;58.50;;;;;;5039860;28;20526;-73
2022/08/31 09:45:38;;;;;;;4.90;4.60;;;23.90;57.70;;;;;;5038202;28;20488;-73
2022/08/31 09:48:07;;;;;;;5.50;5.00;;;24.10;57.30;;;;;;5056542;28;20419;-73
2022/08/31 09:50:43;;;;;;;5.90;5.40;;;24.20;56.20;;;;;;5052563;28;20516;-74
2022/08/31 09:56:12;;;;;;;5.13;4.63;;;24.30;56.10;;;;;;5038382;28;21000;-74
2022/08/31 09:58:40;;;;;;;4.95;4.55;;;24.40;55.90;;;;;;5037254;28;20433;-74
2022/08/31 10:01:12;;;;;;;5.10;4.60;;;24.80;54.30;;;;;;5044175;28;20413;-73
2022/08/31 10:03:44;;;;;;;4.50;4.10;;;25.20;55.00;;;;;;5053594;28;20511;-73
2022/08/31 10:06:36;;;;;;;5.57;5.07;;;25.40;53.60;;;;;;5060826;28;20519;-76
2022/08/31 10:09:10;;;;;;;4.95;4.30;;;25.50;52.60;;;;;;5041791;28;20460;-73
2022/08/31 10:11:39;;;;;;;4.60;4.15;;;25.40;52.10;;;;;;5039929;28;20912;-74
2022/08/31 10:14:15;;;;;;;4.40;4.00;;;25.30;50.50;;;;;;5044184;28;20508;-74
2022/08/31 10:16:47;;;;;;;4.05;3.75;;;25.20;51.30;;;;;;5043978;28;20432;-75
2022/08/31 10:19:19;;;;;;;4.80;4.40;;;25.30;51.80;;;;;;5044020;28;20755;-75
2022/08/31 10:21:50;;;;;;;4.68;4.20;;;25.50;50.40;;;;;;5036289;28;20862;-75
2022/08/31 10:24:28;;;;;;;4.40;4.00;;;25.60;51.20;;;;;;5047055;28;20896;-76
2022/08/31 10:27:04;;;;;;;4.00;3.70;;;25.80;49.90;;;;;;5043115;28;20456;-74
2022/08/31 10:29:38;;;;;;;4.03;3.40;;;26.10;49.30;;;;;;5041768;28;20433;-76
2022/08/31 10:32:16;;;;;;;4.30;3.90;;;26.50;47.30;;;;;;5042255;28;21273;-75
2022/08/31 10:35:05;;;;;;;4.28;3.83;;;26.40;47.20;;;;;;5043322;28;21147;-76
2022/08/31 10:37:54;;;;;;;4.30;3.90;;;26.00;48.40;;;;;;5039252;28;20733;-75
2022/08/31 10:40:28;;;;;;;3.80;3.50;;;26.00;48.40;;;;;;5041874;28;21202;-75
2022/08/31 10:43:08;;;;;;;3.93;3.63;;;26.20;48.00;;;;;;5043288;28;20869;-75
2022/08/31 10:45:39;;;;;;;4.00;3.70;;;26.50;48.00;;;;;;5031156;28;20417;-75
2022/08/31 10:48:06;;;;;;;4.55;4.15;;;26.70;47.10;;;;;;5041827;28;20430;-75
2022/08/31 10:50:39;;;;;;;4.50;4.13;;;26.50;47.30;;;;;;5042337;28;20612;-75
2022/08/31 10:53:14;;;;;;;4.82;4.43;;;26.00;48.40;;;;;;5041417;28;20454;-76
2022/08/31 10:55:50;;;;;;;4.00;3.70;;;25.90;48.80;;;;;;5042123;28;20417;-75
2022/08/31 10:58:26;;;;;;;4.20;3.80;;;26.10;49.20;;;;;;5042831;28;20511;-75
2022/08/31 11:00:57;;;;;;;3.97;3.58;;;26.40;48.30;;;;;;5042856;28;20734;-75
2022/08/31 11:03:46;;;;;;;3.88;3.58;;;26.90;47.70;;;;;;5042311;28;20432;-76
2022/08/31 11:06:20;;;;;;;4.03;3.63;;;27.10;46.60;;;;;;5041826;28;20938;-76
2022/08/31 11:08:57;;;;;;;4.17;3.87;;;27.40;46.60;;;;;;5041653;28;20466;-76
2022/08/31 11:11:34;;;;;;;4.00;3.70;;;27.50;45.40;;;;;;5041307;28;20484;-75
2022/08/31 11:14:29;;;;;;;3.30;3.10;;;27.40;44.80;;;;;;5042547;28;20421;-75
2022/08/31 11:17:27;;;;;;;3.85;3.65;;;27.50;44.20;;;;;;5042424;28;20508;-75
2022/08/31 11:20:18;;;;;;;3.30;3.00;;;27.70;44.20;;;;;;5035952;28;20544;-75
2022/08/31 11:23:12;;;;;;;3.50;3.20;;;28.10;43.50;;;;;;5029920;28;20517;-75
2022/08/31 11:26:07;;;;;;;3.30;3.10;;;28.00;43.20;;;;;;5039309;28;20981;-76
2022/08/31 11:28:38;;;;;;;4.00;3.70;;;28.30;42.90;;;;;;5050480;28;20803;-76
2022/08/31 11:31:13;;;;;;;3.67;3.40;;;28.60;42.10;;;;;;5042174;28;20500;-75
2022/08/31 11:33:49;;;;;;;3.67;3.38;;;28.40;42.60;;;;;;5035627;28;20441;-75
2022/08/31 11:36:46;;;;;;;3.87;3.40;;;28.10;42.10;;;;;;5042850;28;20460;-73
2022/08/31 11:39:35;;;;;;;3.50;3.20;;;27.70;41.80;;;;;;5032854;28;20429;-73
2022/08/31 11:42:09;;;;;;;3.70;3.40;;;27.30;43.60;;;;;;5045102;28;20417;-74
2022/08/31 11:45:05;;;;;;;3.55;3.25;;;27.30;43.70;;;;;;5042638;28;20563;-76
2022/08/31 11:47:40;;;;;;;4.50;3.40;;;27.20;43.70;;;;;;5029958;28;20432;-75
2022/08/31 11:50:33;;;;;;;3.65;3.45;;;27.20;43.20;;;;;;5041041;28;20432;-75
2022/08/31 11:53:16;;;;;;;3.60;3.30;;;27.00;43.50;;;;;;5034120;28;20921;-75
2022/08/31 11:55:50;;;;;;;4.30;3.40;;;27.00;43.10;;;;;;5042963;28;20447;-75
2022/08/31 11:58:33;;;;;;;3.40;3.10;;;26.90;42.80;;;;;;5038272;28;20948;-76
2022/08/31 12:01:05;;;;;;;3.30;3.00;;;26.90;42.80;;;;;;5036038;28;20451;-76
2022/08/31 12:03:51;;;;;;;3.65;3.13;;;27.30;42.20;;;;;;5039696;28;20513;-75
2022/08/31 12:07:07;;;;;;;3.17;2.97;;;27.80;40.40;;;;;;5039970;28;20441;-76
2022/08/31 12:10:14;;;;;;;3.40;3.10;;;28.10;40.40;;;;;;5039947;28;20417;-75
2022/08/31 12:13:06;;;;;;;3.20;3.00;;;28.10;40.20;;;;;;5037732;28;20429;-76
2022/08/31 12:15:50;;;;;;;3.10;2.80;;;28.00;40.50;;;;;;5038775;28;21092;-75
2022/08/31 12:18:29;;;;;;;2.80;2.50;;;28.20;40.70;;;;;;5037558;28;20492;-75
2022/08/31 12:24:03;;;;;;;3.10;2.90;;;29.10;38.00;;;;;;5042303;28;20745;-74
2022/08/31 12:26:58;;;;;;;2.75;2.60;;;29.10;36.40;;;;;;5038039;28;20475;-74
2022/08/31 12:29:28;;;;;;;3.37;2.40;;;28.80;37.50;;;;;;5041020;28;20532;-74
2022/08/31 12:32:18;;;;;;;3.00;2.70;;;28.70;37.20;;;;;;5040486;28;20512;-75
2022/08/31 12:34:49;;;;;;;3.50;2.70;;;28.80;36.70;;;;;;5036815;28;20447;-74
2022/08/31 12:37:21;;;;;;;3.33;2.73;;;29.00;37.30;;;;;;5040349;28;20504;-73
2022/08/31 12:39:48;;;;;;;3.08;2.67;;;29.30;36.80;;;;;;5039895;28;20516;-74
2022/08/31 12:42:15;;;;;;;3.22;2.60;;;29.70;36.50;;;;;;5036369;28;20433;-74
2022/08/31 12:44:49;;;;;;;2.60;2.40;;;30.10;35.40;;;;;;5035653;28;20438;-75
2022/08/31 12:47:29;;;;;;;3.20;2.53;;;30.10;34.70;;;;;;5037069;28;20513;-73
2022/08/31 12:50:08;;;;;;;5.57;2.60;;;30.10;34.60;;;;;;5041204;28;20486;-74
2022/08/31 12:52:50;;;;;;;2.60;2.40;;;30.20;35.30;;;;;;5037187;28;20540;-74
2022/08/31 12:55:30;;;;;;;2.67;2.10;;;30.50;34.40;;;;;;5044128;28;20417;-73
2022/08/31 12:58:19;;;;;;;2.50;2.30;;;30.70;33.00;;;;;;5044944;28;20413;-74
2022/08/31 13:00:47;;;;;;;2.90;2.00;;;30.80;33.70;;;;;;5043235;28;20429;-75
2022/08/31 13:03:21;;;;;;;3.38;2.47;;;30.80;31.80;;;;;;5040539;28;20924;-74
2022/08/31 13:06:04;;;;;;;2.53;2.10;;;30.80;32.10;;;;;;5034933;28;20539;-73
2022/08/31 13:08:37;;;;;;;2.67;2.20;;;30.80;32.10;;;;;;5032396;28;20433;-74
2022/08/31 13:11:24;;;;;;;2.50;2.30;;;30.90;32.30;;;;;;5044449;28;20512;-74
2022/08/31 13:13:52;;;;;;;2.78;2.08;;;30.90;31.30;;;;;;5045174;28;20414;-74
2022/08/31 13:16:19;;;;;;;2.53;2.15;;;30.70;31.30;;;;;;5043020;28;20557;-74
2022/08/31 13:19:04;;;;;;;2.40;1.95;;;30.10;31.80;;;;;;5035293;28;20562;-73
2022/08/31 13:21:31;;;;;;;2.60;2.20;;;29.80;32.40;;;;;;5034818;28;21124;-74
2022/08/31 13:24:06;;;;;;;2.80;2.60;;;29.90;33.10;;;;;;5043865;28;20435;-74